Time;durP1;ratioP1;P1;durP2;ratioP2;P2;SDS_P1;SDS_P2;PMS_P1;PMS_P2;Temp;Humidity;BMP_temperature;BMP_pressure;BME280_temperature;BME280_humidity;BME280_pressure;Samples;Min_cycle;Max_cycle;Signal;HPM_P1;HPM_P2
2021/07/02 00:01:53;;;;;;;18.87;12.82;;;;;;;17.40;100.00;98588.33;1691287;83;20840;-60
2021/07/02 00:04:19;;;;;;;13.00;11.57;;;;;;;17.40;100.00;98587.77;1691361;83;20900;-60
2021/07/02 00:06:46;;;;;;;15.23;11.90;;;;;;;17.38;100.00;98583.22;1691218;83;21440;-60
2021/07/02 00:09:13;;;;;;;14.80;11.50;;;;;;;17.34;100.00;98588.50;1691569;85;20940;-60
2021/07/02 00:11:40;;;;;;;17.35;11.63;;;;;;;17.33;100.00;98595.59;1691312;83;21177;-60
2021/07/02 00:14:06;;;;;;;14.63;11.97;;;;;;;17.29;100.00;98590.56;1691160;84;20958;-60
2021/07/02 00:16:34;;;;;;;15.75;12.35;;;;;;;17.27;100.00;98582.77;1691287;83;20896;-60
2021/07/02 00:19:01;;;;;;;20.05;12.82;;;;;;;17.26;100.00;98584.44;1691445;83;20915;-61
2021/07/02 00:21:28;;;;;;;13.80;11.85;;;;;;;17.25;100.00;98586.92;1691311;83;20930;-60
2021/07/02 00:23:54;;;;;;;18.77;11.78;;;;;;;17.23;100.00;98595.37;1691588;83;21103;-59
2021/07/02 00:26:21;;;;;;;18.23;11.83;;;;;;;17.22;100.00;98592.43;1691366;83;20867;-60
2021/07/02 00:28:48;;;;;;;17.20;12.58;;;;;;;17.20;100.00;98587.06;1691095;83;20987;-60
2021/07/02 00:31:14;;;;;;;18.80;12.20;;;;;;;17.19;100.00;98590.34;1691064;85;20935;-60
2021/07/02 00:33:41;;;;;;;20.10;12.28;;;;;;;17.14;100.00;98588.59;1691517;83;20899;-60
2021/07/02 00:36:07;;;;;;;17.67;12.75;;;;;;;17.13;100.00;98585.64;1691062;83;21127;-59
2021/07/02 00:38:34;;;;;;;13.83;10.95;;;;;;;17.10;100.00;98591.72;1691138;83;20974;-59
2021/07/02 00:41:00;;;;;;;15.00;11.63;;;;;;;17.07;100.00;98589.63;1691313;85;20915;-59
2021/07/02 00:43:27;;;;;;;20.05;11.45;;;;;;;17.03;100.00;98585.98;1691600;83;20959;-60
2021/07/02 00:45:54;;;;;;;11.08;9.80;;;;;;;17.00;100.00;98580.38;1691138;84;20916;-60
2021/07/02 00:48:22;;;;;;;16.67;11.80;;;;;;;16.95;100.00;98576.48;1691582;84;21102;-60
2021/07/02 00:50:49;;;;;;;20.02;11.10;;;;;;;16.90;100.00;98572.02;1691039;85;20872;-60
2021/07/02 00:53:16;;;;;;;;;;;;;;;16.84;100.00;98567.32;1693911;83;21409;-60
2021/07/02 00:55:44;;;;;;;17.98;11.53;;;;;;;16.79;100.00;98569.41;1673479;85;20088;-60
2021/07/02 00:58:11;;;;;;;19.02;12.05;;;;;;;16.72;100.00;98567.13;1665130;86;20904;-60
2021/07/02 01:00:39;;;;;;;17.95;12.37;;;;;;;16.67;100.00;98572.14;1691312;83;21122;-60
2021/07/02 01:03:06;;;;;;;17.48;11.78;;;;;;;16.64;100.00;98573.34;1676401;82;21004;-59
2021/07/02 01:05:34;;;;;;;18.42;11.40;;;;;;;16.62;100.00;98566.09;1712474;83;20902;-60
2021/07/02 01:08:01;;;;;;;15.40;12.55;;;;;;;16.59;100.00;98554.55;1684142;83;21405;-60
2021/07/02 01:10:28;;;;;;;14.25;12.05;;;;;;;16.55;100.00;98548.95;1686640;84;20934;-60
2021/07/02 01:12:55;;;;;;;14.50;11.60;;;;;;;16.52;100.00;98545.53;1703024;83;21717;-60
2021/07/02 01:15:25;;;;;;;19.80;12.73;;;;;;;16.50;100.00;98542.34;1703161;83;20839;-60
2021/07/02 01:17:59;;;;;;;16.62;11.95;;;;;;;16.47;100.00;98532.94;1695042;84;20884;-60
2021/07/02 01:20:26;;;;;;;21.85;12.47;;;;;;;16.43;100.00;98536.02;1703090;84;21417;-60
2021/07/02 01:22:52;;;;;;;21.35;13.10;;;;;;;16.40;100.00;98533.95;1703052;84;20981;-60
2021/07/02 01:25:19;;;;;;;23.77;12.95;;;;;;;16.38;100.00;98533.47;1702963;83;21781;-60
2021/07/02 01:27:46;;;;;;;23.70;13.05;;;;;;;16.36;100.00;98528.92;1684850;84;21388;-60
2021/07/02 01:30:16;;;;;;;;;;;;;;;16.35;100.00;98527.91;1705456;84;20871;-59
2021/07/02 01:32:42;;;;;;;22.07;14.10;;;;;;;16.34;100.00;98526.30;1703184;84;20094;-59
2021/07/02 01:35:10;;;;;;;23.80;14.45;;;;;;;16.32;100.00;98528.55;1702909;84;21445;-60
2021/07/02 01:37:37;;;;;;;21.85;14.07;;;;;;;16.29;100.00;98524.00;1702884;83;21114;-60
2021/07/02 01:40:07;;;;;;;22.55;13.95;;;;;;;16.29;100.00;98533.48;1703183;84;20954;-60
2021/07/02 01:42:34;;;;;;;29.00;15.23;;;;;;;16.28;100.00;98529.72;1676838;84;20871;-61
2021/07/02 01:45:01;;;;;;;26.90;15.50;;;;;;;16.28;100.00;98536.48;1685119;84;20918;-60
2021/07/02 01:47:28;;;;;;;18.73;14.15;;;;;;;16.29;100.00;98551.61;1685094;84;20950;-60
2021/07/02 01:49:56;;;;;;;17.45;13.48;;;;;;;16.29;100.00;98551.61;1703337;84;21408;-59
2021/07/02 01:52:24;;;;;;;;;;;;;;;16.26;100.00;98550.89;1705584;83;21026;-59
2021/07/02 01:54:52;;;;;;;19.52;15.08;;;;;;;16.25;100.00;98550.66;1703148;83;20081;-60
2021/07/02 01:57:23;;;;;;;27.07;15.43;;;;;;;16.25;100.00;98542.55;1703234;84;20873;-60
2021/07/02 01:59:50;;;;;;;26.10;15.72;;;;;;;16.25;100.00;98542.55;1703229;84;20879;-60
2021/07/02 02:02:18;;;;;;;26.75;16.75;;;;;;;16.25;100.00;98539.27;1703554;83;21092;-61
2021/07/02 02:04:47;;;;;;;18.30;16.02;;;;;;;16.25;100.00;98543.89;1706240;83;20906;-60
2021/07/02 02:07:13;;;;;;;19.85;16.97;;;;;;;16.23;100.00;98540.70;1665950;86;20857;-61
2021/07/02 02:09:42;;;;;;;26.07;16.27;;;;;;;16.22;100.00;98540.47;1666179;86;21008;-61
2021/07/02 02:12:10;;;;;;;27.48;17.50;;;;;;;16.21;100.00;98546.42;1666149;86;20988;-61
2021/07/02 02:14:40;;;;;;;20.55;16.00;;;;;;;16.21;100.00;98549.69;1665657;86;20913;-60
2021/07/02 02:17:09;;;;;;;24.35;17.52;;;;;;;16.20;100.00;98551.61;1665914;86;20917;-61
2021/07/02 02:19:37;;;;;;;19.57;15.88;;;;;;;16.19;100.00;98551.38;1666058;86;20936;-60
2021/07/02 02:22:04;;;;;;;18.32;16.10;;;;;;;16.21;100.00;98556.45;1666363;86;20916;-60
2021/07/02 02:24:32;;;;;;;20.08;17.73;;;;;;;16.25;100.00;98557.44;1707165;83;20894;-60
2021/07/02 02:27:01;;;;;;;20.55;15.95;;;;;;;16.28;100.00;98559.50;1707838;83;21184;-60
2021/07/02 02:29:28;;;;;;;21.60;16.20;;;;;;;16.30;100.00;98565.41;1691922;84;20911;-60
2021/07/02 02:31:55;;;;;;;23.55;16.42;;;;;;;16.30;100.00;98561.34;1666287;86;21633;-60
2021/07/02 02:34:21;;;;;;;23.05;16.17;;;;;;;16.31;100.00;98561.58;1666018;86;20932;-61
2021/07/02 02:36:50;;;;;;;36.00;18.27;;;;;;;16.33;100.00;98568.83;1666318;86;20991;-60
2021/07/02 02:39:17;;;;;;;20.68;16.42;;;;;;;16.34;100.00;98570.44;1666004;86;21326;-61
2021/07/02 02:41:44;;;;;;;26.12;16.80;;;;;;;16.40;100.00;98576.50;1666063;86;20841;-61
2021/07/02 02:44:12;;;;;;;22.87;15.53;;;;;;;16.40;100.00;98587.33;1665841;86;20985;-61
2021/07/02 02:46:40;;;;;;;21.68;16.17;;;;;;;16.44;100.00;98596.42;1666174;86;20924;-61
2021/07/02 02:49:07;;;;;;;18.37;16.45;;;;;;;16.47;100.00;98601.20;1665996;86;20984;-61
2021/07/02 02:51:34;;;;;;;28.60;16.48;;;;;;;16.51;100.00;98600.80;1665982;86;21076;-62
2021/07/02 02:54:00;;;;;;;27.42;16.48;;;;;;;16.54;100.00;98601.54;1666071;86;20913;-63
2021/07/02 02:56:27;;;;;;;23.22;16.10;;;;;;;16.56;100.00;98610.69;1666216;86;21015;-63
2021/07/02 02:58:54;;;;;;;26.30;17.45;;;;;;;16.60;100.00;98613.02;1666206;86;20916;-63
2021/07/02 03:01:22;;;;;;;22.85;16.50;;;;;;;16.64;100.00;98607.22;1666027;86;20888;-62
2021/07/02 03:03:50;;;;;;;20.08;16.35;;;;;;;16.66;100.00;98615.27;1706708;83;21817;-63
2021/07/02 03:06:17;;;;;;;21.75;17.12;;;;;;;16.68;100.00;98617.11;1702914;84;20883;-63
2021/07/02 03:08:44;;;;;;;23.18;16.93;;;;;;;16.72;100.00;98618.05;1703123;84;21338;-63
2021/07/02 03:11:12;;;;;;;31.10;17.95;;;;;;;16.78;100.00;98620.09;1702877;83;21345;-63
2021/07/02 03:13:39;;;;;;;23.40;17.17;;;;;;;16.83;100.00;98625.36;1703140;84;21413;-63
2021/07/02 03:16:07;;;;;;;20.77;16.70;;;;;;;16.86;100.00;98627.42;1703291;83;21890;-62
2021/07/02 03:18:35;;;;;;;24.47;16.57;;;;;;;16.91;100.00;98620.49;1702638;84;20954;-63
2021/07/02 03:21:02;;;;;;;19.40;17.30;;;;;;;16.96;100.00;98622.81;1703061;83;21393;-63
2021/07/02 03:23:29;;;;;;;26.33;16.95;;;;;;;17.04;100.00;98624.72;1703199;83;20879;-62
2021/07/02 03:25:56;;;;;;;19.90;16.37;;;;;;;17.14;100.00;98621.69;1703209;83;21095;-62
2021/07/02 03:28:23;;;;;;;18.17;16.27;;;;;;;17.24;100.00;98630.84;1703299;84;21170;-62
2021/07/02 03:30:52;;;;;;;25.57;17.23;;;;;;;17.34;100.00;98632.44;1703025;83;20895;-62
2021/07/02 03:33:19;;;;;;;22.22;15.65;;;;;;;17.44;100.00;98627.23;1703347;84;20954;-63
2021/07/02 03:35:47;;;;;;;;;;;;;;;17.51;100.00;98632.97;1705655;84;20915;-63
2021/07/02 03:38:14;;;;;;;23.55;16.55;;;;;;;17.56;100.00;98626.84;1702843;84;20122;-62
2021/07/02 03:40:42;;;;;;;17.48;15.65;;;;;;;17.60;100.00;98623.47;1702998;84;21488;-63
2021/07/02 03:43:09;;;;;;;27.62;17.27;;;;;;;17.57;100.00;98627.06;1702813;83;20999;-63
2021/07/02 03:45:36;;;;;;;20.00;16.32;;;;;;;17.56;100.00;98627.38;1685020;84;21555;-63
2021/07/02 03:48:05;;;;;;;22.20;15.65;;;;;;;17.55;100.00;98623.88;1702856;83;21293;-62
2021/07/02 03:50:34;;;;;;;20.15;14.87;;;;;;;17.56;100.00;98633.62;1702932;83;20925;-64
2021/07/02 03:53:03;;;;;;;18.20;14.13;;;;;;;17.57;100.00;98637.92;1702892;83;21346;-63
2021/07/02 03:55:30;;;;;;;20.07;15.23;;;;;;;17.60;100.00;98642.47;1703125;84;20966;-63
2021/07/02 03:57:56;;;;;;;20.10;16.27;;;;;;;17.65;100.00;98647.16;1703066;83;20985;-63
2021/07/02 04:00:23;;;;;;;19.57;15.80;;;;;;;17.73;100.00;98644.97;1702851;84;20902;-62
2021/07/02 04:02:51;;;;;;;39.45;15.03;;;;;;;17.75;100.00;98643.30;1703336;83;20835;-63
2021/07/02 04:05:18;;;;;;;22.45;14.10;;;;;;;17.69;100.00;98645.97;1702948;84;21135;-63
2021/07/02 04:07:44;;;;;;;15.40;13.78;;;;;;;17.59;100.00;98647.10;1703137;83;20938;-63
2021/07/02 04:10:11;;;;;;;21.82;15.88;;;;;;;17.54;100.00;98644.00;1703014;84;20910;-63
2021/07/02 04:12:37;;;;;;;21.10;15.25;;;;;;;17.56;100.00;98635.52;1703274;84;20958;-63
2021/07/02 04:15:06;;;;;;;18.07;14.90;;;;;;;17.59;100.00;98641.67;1703047;84;20879;-62
2021/07/02 04:17:37;;;;;;;19.40;16.73;;;;;;;17.65;100.00;98644.44;1702984;83;20910;-63
2021/07/02 04:20:06;;;;;;;23.65;18.00;;;;;;;17.72;100.00;98641.24;1702905;83;21303;-63
2021/07/02 04:22:35;;;;;;;25.00;16.17;;;;;;;17.77;100.00;98633.72;1702808;84;20867;-63
2021/07/02 04:25:04;;;;;;;22.65;18.17;;;;;;;17.82;100.00;98621.13;1703169;83;20891;-63
2021/07/02 04:27:32;;;;;;;25.52;18.07;;;;;;;17.90;100.00;98625.73;1703014;83;20875;-62
2021/07/02 04:29:58;;;;;;;25.72;17.90;;;;;;;17.98;100.00;98623.00;1702933;83;21136;-61
2021/07/02 04:32:25;;;;;;;25.23;17.70;;;;;;;18.09;100.00;98629.42;1702979;84;20938;-63
2021/07/02 04:34:52;;;;;;;25.27;18.55;;;;;;;18.14;100.00;98628.67;1703047;84;20867;-63
2021/07/02 04:37:18;;;;;;;29.42;19.25;;;;;;;18.16;100.00;98625.64;1702866;84;20933;-62
2021/07/02 04:39:45;;;;;;;21.60;19.30;;;;;;;18.18;100.00;98625.55;1703039;84;20879;-61
2021/07/02 04:42:11;;;;;;;21.25;18.65;;;;;;;18.27;100.00;98625.48;1703296;83;21112;-61
2021/07/02 04:44:40;;;;;;;20.32;17.95;;;;;;;18.33;100.00;98626.91;1703031;83;21014;-62
2021/07/02 04:47:06;;;;;;;24.52;18.35;;;;;;;18.39;100.00;98629.66;1703131;84;20998;-61
2021/07/02 04:49:35;;;;;;;28.32;18.10;;;;;;;18.44;100.00;98634.11;1702975;83;20868;-63
2021/07/02 04:52:02;;;;;;;21.17;18.00;;;;;;;18.38;100.00;98626.72;1702890;84;20915;-62
2021/07/02 04:54:29;;;;;;;22.10;18.55;;;;;;;18.32;100.00;98628.02;1676775;84;21820;-62
2021/07/02 04:56:58;;;;;;;24.30;18.90;;;;;;;18.32;100.00;98632.09;1703045;83;21456;-61
2021/07/02 04:59:29;;;;;;;23.10;19.82;;;;;;;18.40;100.00;98633.20;1703123;83;20914;-61
2021/07/02 05:01:57;;;;;;;25.30;18.65;;;;;;;18.44;100.00;98630.03;1702796;83;20997;-61
2021/07/02 05:04:23;;;;;;;20.20;17.75;;;;;;;18.50;100.00;98630.09;1703258;84;21226;-61
2021/07/02 05:06:50;;;;;;;28.50;19.52;;;;;;;18.48;100.00;98628.27;1702759;84;21096;-61
2021/07/02 05:09:17;;;;;;;22.62;18.27;;;;;;;18.53;100.00;98630.79;1703208;84;21049;-61
2021/07/02 05:11:43;;;;;;;22.20;18.55;;;;;;;18.56;100.00;98639.64;1702852;83;20828;-61
2021/07/02 05:14:10;;;;;;;26.70;18.82;;;;;;;18.57;100.00;98634.45;1702636;84;20930;-61
2021/07/02 05:16:36;;;;;;;24.37;19.25;;;;;;;18.67;100.00;98638.71;1702766;84;20997;-61
2021/07/02 05:19:04;;;;;;;;;;;;;;;18.74;100.00;98645.78;1705203;83;20863;-61
2021/07/02 05:21:31;;;;;;;19.90;17.80;;;;;;;18.83;100.00;98646.53;1702812;84;20078;-60
2021/07/02 05:23:59;;;;;;;27.90;19.00;;;;;;;19.02;100.00;98654.81;1702591;83;20975;-61
2021/07/02 05:26:26;;;;;;;21.90;18.60;;;;;;;19.22;100.00;98651.28;1702704;84;20973;-60
2021/07/02 05:28:54;;;;;;;18.62;16.25;;;;;;;19.40;100.00;98653.30;1702586;84;20954;-61
2021/07/02 05:31:20;;;;;;;21.05;16.05;;;;;;;19.50;100.00;98654.81;1694617;84;21037;-61
2021/07/02 05:33:47;;;;;;;16.75;14.95;;;;;;;19.40;100.00;98658.74;1690955;83;20933;-60
2021/07/02 05:36:13;;;;;;;21.60;16.10;;;;;;;19.40;100.00;98658.74;1699768;83;20914;-61
2021/07/02 05:38:40;;;;;;;30.15;17.77;;;;;;;19.47;100.00;98663.05;1668320;84;20970;-61
2021/07/02 05:41:06;;;;;;;23.22;16.05;;;;;;;19.41;100.00;98671.20;1686605;84;21001;-61
2021/07/02 05:43:33;;;;;;;20.57;16.30;;;;;;;19.41;100.00;98662.25;1688111;85;21060;-60
2021/07/02 05:45:59;;;;;;;18.77;14.85;;;;;;;19.38;100.00;98666.44;1688098;85;20965;-60
2021/07/02 05:48:27;;;;;;;20.27;14.50;;;;;;;19.39;100.00;98668.02;1687762;84;21008;-60
2021/07/02 05:50:54;;;;;;;;;;;;;;;19.52;100.00;98660.70;1690343;85;20943;-61
2021/07/02 05:53:21;;;;;;;18.65;15.30;;;;;;;20.11;100.00;98663.70;1687722;85;20087;-61
2021/07/02 05:55:47;;;;;;;23.47;14.87;;;;;;;20.11;100.00;98663.70;1687959;85;21159;-62
2021/07/02 05:58:14;;;;;;;16.65;13.55;;;;;;;20.23;100.00;98672.47;1663848;85;20933;-61
2021/07/02 06:00:42;;;;;;;19.05;15.35;;;;;;;20.23;100.00;98667.80;1688118;85;21412;-62
2021/07/02 06:03:08;;;;;;;16.70;13.80;;;;;;;20.38;100.00;98670.42;1688115;84;20953;-61
2021/07/02 06:05:35;;;;;;;14.65;12.07;;;;;;;20.72;100.00;98676.02;1678430;83;20836;-63
2021/07/02 06:12:01;;;;;;;16.87;12.73;;;;;;;20.82;100.00;98679.42;1670580;86;21437;-62
2021/07/02 06:18:27;;;;;;;19.95;12.98;;;;;;;21.40;100.00;98675.32;1670517;86;20989;-61
2021/07/02 06:24:52;;;;;;;13.18;10.55;;;;;;;21.42;100.00;98676.92;1670295;86;20947;-61
2021/07/02 06:31:18;;;;;;;15.13;10.28;;;;;;;21.18;100.00;98672.52;1670683;86;20934;-62
2021/07/02 06:37:50;;;;;;;12.05;9.65;;;;;;;21.88;100.00;98672.72;1670690;86;20958;-62
2021/07/02 06:44:15;;;;;;;9.73;8.25;;;;;;;22.63;100.00;98666.95;1670577;86;20938;-64
2021/07/02 06:50:50;;;;;;;11.28;9.78;;;;;;;23.87;100.00;98674.86;1670495;86;21373;-62
2021/07/02 06:53:19;;;;;;;11.33;10.13;;;;;;;23.24;100.00;98675.16;1670299;85;21110;-62
2021/07/02 06:55:46;;;;;;;15.03;10.20;;;;;;;22.62;100.00;98674.95;1672577;83;21456;-62
2021/07/02 06:58:13;;;;;;;17.70;11.65;;;;;;;22.09;100.00;98668.37;1651769;86;21006;-61
2021/07/02 07:00:40;;;;;;;15.40;11.53;;;;;;;21.77;100.00;98668.91;1667588;85;20948;-62
2021/07/02 07:03:08;;;;;;;15.08;10.93;;;;;;;21.64;100.00;98667.39;1665269;85;20986;-61
2021/07/02 07:05:36;;;;;;;17.40;11.25;;;;;;;21.64;100.00;98668.76;1694077;83;20881;-63
2021/07/02 07:08:06;;;;;;;13.80;10.98;;;;;;;21.90;100.00;98666.34;1681550;83;20976;-63
2021/07/02 07:10:37;;;;;;;12.28;10.50;;;;;;;21.98;100.00;98668.11;1711723;83;20900;-63
2021/07/02 07:13:09;;;;;;;14.35;10.25;;;;;;;22.21;100.00;98666.94;1658039;84;20919;-62
2021/07/02 07:15:33;;;;;;;17.10;9.98;;;;;;;22.30;100.00;98670.09;1686402;83;21024;-63
2021/07/02 07:18:00;;;;;;;10.72;8.68;;;;;;;22.50;100.00;98665.48;1709916;83;20980;-61
2021/07/02 07:20:27;;;;;;;12.78;9.48;;;;;;;22.74;100.00;98669.38;1682762;85;21057;-62
2021/07/02 07:22:53;;;;;;;17.07;10.53;;;;;;;22.76;100.00;98669.81;1678265;83;21030;-62
2021/07/02 07:25:21;;;;;;;17.32;10.70;;;;;;;22.75;100.00;98666.84;1689433;83;21044;-64
2021/07/02 07:27:48;;;;;;;12.80;10.30;;;;;;;22.56;100.00;98662.11;1682428;84;20993;-64
2021/07/02 07:30:16;;;;;;;13.03;9.43;;;;;;;22.32;100.00;98667.23;1682508;85;21040;-64
2021/07/02 07:32:44;;;;;;;12.58;9.85;;;;;;;22.21;100.00;98660.69;1698454;84;21489;-65
2021/07/02 07:35:26;;;;;;;;;;;;;;;22.27;100.00;98659.30;1716006;83;20907;-65
2021/07/02 07:37:55;;;;;;;14.07;9.25;;;;;;;22.32;100.00;98659.58;1690240;83;20108;-64
2021/07/02 07:40:21;;;;;;;11.20;9.70;;;;;;;22.16;100.00;98662.30;1737168;82;21399;-61
2021/07/02 07:42:49;;;;;;;12.58;9.65;;;;;;;21.94;100.00;98663.11;1717529;82;20974;-61
2021/07/02 07:45:16;;;;;;;14.07;10.20;;;;;;;21.86;100.00;98659.98;1693287;84;21139;-62
2021/07/02 07:47:43;;;;;;;14.20;9.73;;;;;;;21.97;100.00;98656.94;1694511;83;20921;-61
2021/07/02 07:50:14;;;;;;;13.55;9.00;;;;;;;22.06;100.00;98656.78;1687914;85;20996;-60
2021/07/02 07:52:54;;;;;;;14.30;10.43;;;;;;;22.23;100.00;98649.63;1701554;83;20920;-61
2021/07/02 07:55:20;;;;;;;12.43;10.55;;;;;;;22.26;100.00;98657.11;1705411;82;20888;-62
2021/07/02 07:57:47;;;;;;;13.67;9.13;;;;;;;22.33;100.00;98652.98;1706873;83;21773;-63
2021/07/02 08:00:15;;;;;;;13.53;10.48;;;;;;;22.46;100.00;98661.28;1713966;82;20913;-62
2021/07/02 08:02:42;;;;;;;11.55;9.28;;;;;;;22.62;100.00;98668.91;1707684;82;21576;-62
2021/07/02 08:05:11;;;;;;;10.70;9.57;;;;;;;22.50;100.00;98657.28;1707205;83;21011;-63
2021/07/02 08:07:39;;;;;;;15.23;10.23;;;;;;;22.36;100.00;98669.45;1726810;82;20955;-63
2021/07/02 08:10:10;;;;;;;28.25;10.43;;;;;;;22.44;100.00;98671.23;1724043;82;21115;-63
2021/07/02 08:12:38;;;;;;;13.90;9.70;;;;;;;22.78;100.00;98666.13;1725919;82;20923;-62
2021/07/02 08:15:08;;;;;;;10.50;9.40;;;;;;;23.01;100.00;98670.39;1725674;81;21000;-63
2021/07/02 08:17:35;;;;;;;9.88;8.88;;;;;;;23.07;100.00;98675.00;1741035;82;20985;-63
2021/07/02 08:20:04;;;;;;;10.23;8.88;;;;;;;23.10;100.00;98679.20;1741245;82;20904;-62
2021/07/02 08:22:31;;;;;;;10.25;9.08;;;;;;;23.23;100.00;98682.59;1723752;82;21536;-62
2021/07/02 08:24:58;;;;;;;10.48;8.95;;;;;;;23.32;100.00;98690.57;1714732;83;20912;-62
2021/07/02 08:27:25;;;;;;;10.87;8.90;;;;;;;23.37;100.00;98688.94;1715772;83;20877;-63
2021/07/02 08:29:52;;;;;;;10.78;8.40;;;;;;;23.28;100.00;98687.77;1715489;82;20968;-63
2021/07/02 08:32:19;;;;;;;10.53;8.95;;;;;;;23.14;100.00;98684.73;1717182;83;21024;-63
2021/07/02 08:34:46;;;;;;;10.90;8.80;;;;;;;23.08;100.00;98693.02;1721471;83;21057;-62
2021/07/02 08:37:12;;;;;;;12.68;9.70;;;;;;;23.20;100.00;98694.81;1716914;83;20969;-61
2021/07/02 08:39:39;;;;;;;12.23;9.63;;;;;;;23.16;100.00;98701.59;1718074;82;21025;-60
2021/07/02 08:42:07;;;;;;;13.43;9.40;;;;;;;23.16;100.00;98704.33;1726372;82;20990;-60
2021/07/02 08:44:34;;;;;;;10.13;9.10;;;;;;;23.27;100.00;98702.63;1701610;82;21475;-60
2021/07/02 08:47:01;;;;;;;11.57;10.00;;;;;;;23.74;100.00;98708.48;1705290;82;21093;-61
2021/07/02 08:49:30;;;;;;;13.47;10.40;;;;;;;23.83;100.00;98708.23;1703703;84;20969;-60
2021/07/02 08:51:56;;;;;;;10.78;9.73;;;;;;;23.54;100.00;98713.70;1701934;83;21518;-61
2021/07/02 08:54:23;;;;;;;11.68;9.70;;;;;;;23.49;100.00;98714.00;1687911;83;20880;-61
2021/07/02 08:56:58;;;;;;;12.50;9.18;;;;;;;23.31;100.00;98717.75;1687609;83;20876;-61
2021/07/02 08:59:27;;;;;;;12.80;10.05;;;;;;;23.30;100.00;98721.06;1687717;85;21336;-61
2021/07/02 09:01:54;;;;;;;12.05;9.83;;;;;;;23.36;100.00;98712.56;1687611;83;20915;-61
2021/07/02 09:04:29;;;;;;;14.78;9.15;;;;;;;23.41;100.00;98710.33;1694335;83;20929;-61
2021/07/02 09:07:06;;;;;;;11.10;9.63;;;;;;;23.38;100.00;98706.95;1716188;83;21418;-61
2021/07/02 09:09:57;;;;;;;13.20;9.88;;;;;;;23.41;100.00;98708.17;1700207;82;21432;-61
2021/07/02 09:12:29;;;;;;;10.15;9.10;;;;;;;23.67;100.00;98708.89;1690683;84;21522;-61
2021/07/02 09:15:10;;;;;;;12.30;8.05;;;;;;;23.75;100.00;98707.31;1690633;84;21002;-61
2021/07/02 09:17:53;;;;;;;12.33;9.40;;;;;;;23.93;100.00;98709.59;1690659;83;21476;-61
2021/07/02 09:20:29;;;;;;;10.10;7.80;;;;;;;24.77;100.00;98703.21;1690764;85;20981;-61
2021/07/02 09:23:00;;;;;;;11.83;7.97;;;;;;;25.66;100.00;98696.74;1691010;84;21033;-63
2021/07/02 09:25:36;;;;;;;10.90;8.43;;;;;;;26.19;100.00;98701.25;1690680;83;21181;-63
2021/07/02 09:28:11;;;;;;;9.23;7.83;;;;;;;25.78;99.63;98701.78;1689298;83;20886;-63
2021/07/02 09:30:41;;;;;;;9.20;8.23;;;;;;;25.65;100.00;98693.80;1690479;83;20976;-60
2021/07/02 09:33:16;;;;;;;9.38;8.30;;;;;;;25.76;100.00;98689.00;1690412;83;21028;-60
2021/07/02 09:35:50;;;;;;;10.00;7.83;;;;;;;25.56;100.00;98691.14;1690671;83;21049;-59
2021/07/02 09:38:17;;;;;;;8.85;7.55;;;;;;;25.61;100.00;98688.05;1691158;83;21120;-59
2021/07/02 09:40:46;;;;;;;11.78;7.08;;;;;;;25.91;100.00;98692.13;1690551;83;20894;-60
2021/07/02 09:43:18;;;;;;;8.53;6.25;;;;;;;26.22;100.00;98688.11;1690631;83;20942;-60
2021/07/02 09:45:52;;;;;;;8.75;7.30;;;;;;;26.06;98.32;98694.42;1690813;85;20914;-60
2021/07/02 09:48:20;;;;;;;9.60;6.70;;;;;;;26.15;100.00;98696.88;1690558;83;21027;-60
2021/07/02 09:50:54;;;;;;;7.80;6.92;;;;;;;26.32;100.00;98700.37;1690696;85;21167;-60
2021/07/02 09:53:24;;;;;;;8.58;6.60;;;;;;;26.51;94.38;98695.23;1690713;84;20974;-60
2021/07/02 09:55:54;;;;;;;9.40;6.80;;;;;;;26.66;92.87;98698.31;1690818;83;21390;-59
2021/07/02 09:58:27;;;;;;;36.58;8.68;;;;;;;26.83;93.75;98695.48;1690368;84;21038;-59
2021/07/02 10:01:00;;;;;;;8.30;6.00;;;;;;;26.99;92.50;98701.27;1708080;82;21494;-60
2021/07/02 10:03:33;;;;;;;9.38;6.15;;;;;;;27.19;85.82;98695.69;1690968;83;20923;-60
2021/07/02 10:06:14;;;;;;;11.10;7.08;;;;;;;27.49;86.32;98698.20;1709093;83;21856;-60
2021/07/02 10:08:42;;;;;;;9.63;7.12;;;;;;;27.51;83.52;98697.80;1712025;82;21359;-60
2021/07/02 10:11:11;;;;;;;9.03;6.55;;;;;;;27.38;83.13;98693.23;1716063;83;20970;-60
2021/07/02 10:13:43;;;;;;;6.72;6.03;;;;;;;27.32;85.06;98685.15;1716284;82;21498;-60
2021/07/02 10:16:12;;;;;;;7.45;6.37;;;;;;;27.27;85.69;98680.02;1687876;83;21114;-60
2021/07/02 10:18:48;;;;;;;8.55;6.30;;;;;;;27.12;82.55;98684.05;1716123;83;21414;-60
2021/07/02 10:21:16;;;;;;;7.72;6.80;;;;;;;27.10;86.51;98680.88;1716168;83;20881;-60
2021/07/02 10:23:48;;;;;;;10.38;6.42;;;;;;;27.31;85.93;98679.42;1716220;83;20900;-60
2021/07/02 10:26:15;;;;;;;6.33;5.72;;;;;;;27.60;81.46;98680.31;1699971;83;20896;-60
2021/07/02 10:28:43;;;;;;;6.55;5.50;;;;;;;27.99;80.27;98681.81;1724137;81;21111;-60
2021/07/02 10:31:11;;;;;;;8.43;5.30;;;;;;;28.02;78.32;98680.83;1692350;83;20934;-60
2021/07/02 10:33:48;;;;;;;7.87;5.60;;;;;;;27.76;79.11;98679.38;1691104;85;20911;-60
2021/07/02 10:36:16;;;;;;;7.28;6.05;;;;;;;27.47;79.83;98674.37;1690894;83;21433;-60
2021/07/02 10:38:46;;;;;;;7.78;5.85;;;;;;;27.77;86.71;98663.03;1691514;84;20895;-60
2021/07/02 10:41:21;;;;;;;6.72;6.00;;;;;;;28.33;79.47;98671.79;1691179;83;21714;-60
2021/07/02 10:44:11;;;;;;;9.03;6.40;;;;;;;27.94;75.91;98675.30;1691154;84;20967;-60
2021/07/02 10:46:41;;;;;;;6.75;5.70;;;;;;;27.83;77.89;98670.38;1691116;84;20971;-60
2021/07/02 10:49:11;;;;;;;11.43;5.75;;;;;;;27.69;75.73;98671.69;1691330;83;21442;-60
2021/07/02 10:51:50;;;;;;;7.90;5.37;;;;;;;28.02;81.47;98667.05;1691210;83;20900;-60
2021/07/02 10:54:23;;;;;;;7.47;5.67;;;;;;;28.42;79.15;98668.05;1690826;83;21128;-59
2021/07/02 10:57:02;;;;;;;5.00;4.60;;;;;;;28.30;73.02;98664.30;1691109;84;20949;-60
2021/07/02 10:59:44;;;;;;;7.35;5.03;;;;;;;27.74;77.00;98660.28;1691234;83;20876;-60
2021/07/02 11:02:18;;;;;;;5.65;5.12;;;;;;;27.78;75.90;98659.68;1691083;83;20945;-60
2021/07/02 11:04:49;;;;;;;5.28;4.78;;;;;;;27.81;74.01;98652.03;1691394;84;20924;-60
2021/07/02 11:07:27;;;;;;;5.53;4.95;;;;;;;27.74;75.71;98660.28;1698263;83;21208;-60
2021/07/02 11:09:58;;;;;;;7.17;4.40;;;;;;;27.94;75.52;98656.00;1692576;84;21032;-60
2021/07/02 11:12:44;;;;;;;5.25;4.80;;;;;;;28.38;76.07;98658.19;1693324;84;20946;-60
2021/07/02 11:15:19;;;;;;;9.03;5.00;;;;;;;28.35;73.94;98652.87;1692520;83;21059;-60
2021/07/02 11:17:50;;;;;;;6.85;4.85;;;;;;;28.29;73.49;98661.94;1693230;84;20886;-60
2021/07/02 11:20:22;;;;;;;8.40;4.92;;;;;;;27.96;75.02;98655.62;1692937;84;21135;-59
2021/07/02 11:22:58;;;;;;;6.50;5.35;;;;;;;27.81;77.48;98646.52;1693281;84;21025;-60
2021/07/02 11:25:32;;;;;;;6.33;4.90;;;;;;;27.62;76.01;98649.02;1693627;84;20945;-59
2021/07/02 11:28:03;;;;;;;7.45;5.60;;;;;;;27.05;77.64;98643.29;1693406;84;20969;-60
2021/07/02 11:30:36;;;;;;;7.72;5.65;;;;;;;26.52;82.61;98643.14;1693343;84;20937;-60
2021/07/02 11:33:12;;;;;;;9.63;6.12;;;;;;;26.68;82.98;98640.14;1692600;84;21152;-60
2021/07/02 11:35:46;;;;;;;7.90;6.50;;;;;;;26.72;84.63;98640.34;1693139;84;21065;-60
2021/07/02 11:38:21;;;;;;;6.90;6.08;;;;;;;26.32;87.67;98637.11;1693306;84;20886;-60
2021/07/02 11:40:58;;;;;;;219.70;24.72;;;;;;;26.75;88.05;98639.38;1693428;84;21404;-60
2021/07/02 11:43:37;;;;;;;12.03;6.17;;;;;;;27.17;85.19;98640.20;1693130;84;20969;-60
2021/07/02 11:46:05;;;;;;;7.03;5.58;;;;;;;27.49;80.13;98640.34;1692469;84;21091;-60
2021/07/02 11:48:35;;;;;;;5.78;5.17;;;;;;;27.64;79.12;98635.64;1692438;84;21451;-60
2021/07/02 11:51:08;;;;;;;5.40;4.75;;;;;;;27.33;77.77;98628.27;1693160;84;21382;-61
2021/07/02 11:53:47;;;;;;;7.62;5.75;;;;;;;27.38;81.27;98633.20;1693111;84;20916;-61